Time;durP1;ratioP1;P1;durP2;ratioP2;P2;SDS_P1;SDS_P2;PMS_P1;PMS_P2;Temp;Humidity;BMP_temperature;BMP_pressure;BME280_temperature;BME280_humidity;BME280_pressure;Samples;Min_cycle;Max_cycle;Signal;HPM_P1;HPM_P2
2023/12/27 00:00:21;;;;;;;;;14.00;10.00;;;;;-144.24;100.00;84618.72;5099646;27;45387;-69
2023/12/27 00:02:47;;;;;;;;;11.33;10.33;;;;;-144.24;100.00;84986.81;5081006;27;45608;-69
2023/12/27 00:05:12;;;;;;;;;11.67;7.00;;;;;-144.24;100.00;85106.16;5099423;27;46785;-70
2023/12/27 00:07:38;;;;;;;;;11.00;8.67;;;;;-144.24;100.00;85193.13;5099404;27;45394;-69
2023/12/27 00:10:03;;;;;;;;;10.00;7.67;;;;;-144.24;100.00;85381.25;5097926;27;68098;-68
2023/12/27 00:12:29;;;;;;;;;10.33;9.00;;;;;-144.24;100.00;85500.59;5081219;27;45560;-71
2023/12/27 00:14:54;;;;;;;;;11.00;8.33;;;;;-144.24;100.00;85579.50;5097950;27;71697;-71
2023/12/27 00:17:19;;;;;;;;;12.67;10.33;;;;;-144.24;100.00;85543.09;5099199;27;45483;-69
2023/12/27 00:19:45;;;;;;;;;10.00;9.33;;;;;-144.24;100.00;85684.69;5098464;27;45224;-71
2023/12/27 00:22:10;;;;;;;;;13.33;10.67;;;;;-144.24;100.00;85860.69;5098695;27;60837;-71
2023/12/27 00:24:35;;;;;;;;;12.33;8.67;;;;;-144.24;100.00;85935.53;5098732;27;46382;-70
2023/12/27 00:27:01;;;;;;;;;14.00;10.33;;;;;-144.24;100.00;86150.00;5098237;27;67275;-69
2023/12/27 00:29:26;;;;;;;;;10.00;10.00;;;;;-144.24;100.00;86234.97;5097983;27;65581;-70
2023/12/27 00:31:52;;;;;;;;;11.67;9.00;;;;;-144.24;100.00;86313.88;5098005;27;67051;-70
2023/12/27 00:34:17;;;;;;;;;11.00;8.67;;;;;-144.24;100.00;86520.25;5098670;27;46817;-70
2023/12/27 00:36:42;;;;;;;;;10.33;8.33;;;;;-144.24;100.00;86583.00;5097871;27;71650;-69
2023/12/27 00:39:10;;;;;;;;;11.00;8.33;;;;;-144.24;100.00;86757.00;5097890;27;46711;-70
2023/12/27 00:41:35;;;;;;;;;11.33;7.00;;;;;-144.24;100.00;86815.69;5081391;27;45279;-71
2023/12/27 00:44:01;;;;;;;;;9.33;9.33;;;;;-144.24;100.00;86833.91;5079691;27;45403;-69
2023/12/27 00:46:27;;;;;;;;;11.33;9.33;;;;;-144.24;100.00;87181.97;5098099;27;45525;-69
2023/12/27 00:48:52;;;;;;;;;13.67;10.00;;;;;-144.24;100.00;87222.44;5084430;27;45469;-71
2023/12/27 00:51:21;;;;;;;;;10.00;10.00;;;;;-144.24;100.00;87121.25;5098400;27;57175;-69
2023/12/27 00:53:47;;;;;;;;;12.67;10.33;;;;;-144.24;100.00;87299.34;5098087;27;46690;-69
2023/12/27 00:56:12;;;;;;;;;11.00;8.33;;;;;-144.24;100.00;87833.66;5098067;27;45320;-69
2023/12/27 00:58:38;;;;;;;;;8.00;8.00;;;;;-144.24;100.00;87716.25;5097669;27;69090;-70
2023/12/27 01:01:03;;;;;;;;;11.33;8.33;;;;;-144.24;100.00;87833.66;5097450;27;58458;-71
2023/12/27 01:03:28;;;;;;;;;12.00;10.00;;;;;-144.24;100.00;87878.19;5097230;27;75189;-70
2023/12/27 01:05:54;;;;;;;;;10.67;7.67;;;;;-144.24;100.00;88072.50;5091488;27;68349;-69
2023/12/27 01:08:19;;;;;;;;;7.67;7.00;;;;;-144.24;100.00;88064.41;5095271;27;54644;-70
2023/12/27 01:10:44;;;;;;;;;11.33;9.00;;;;;-144.24;100.00;88056.31;5088572;27;66350;-70
2023/12/27 01:13:10;;;;;;;;;14.67;10.00;;;;;-144.24;100.00;88090.72;5097142;27;70505;-70
2023/12/27 01:15:35;;;;;;;;;11.33;9.67;;;;;-144.24;100.00;88060.34;5098131;27;45306;-70
2023/12/27 01:18:00;;;;;;;;;11.67;7.67;;;;;-144.24;100.00;87977.38;5097531;27;45331;-69
2023/12/27 01:20:27;;;;;;;;;12.00;10.33;;;;;-144.24;100.00;88384.25;5095430;27;56108;-69
2023/12/27 01:22:53;;;;;;;;;11.00;9.00;;;;;-144.24;100.00;88408.53;5095463;27;46610;-69
2023/12/27 01:25:18;;;;;;;;;11.00;9.00;;;;;-144.24;100.00;88171.69;5097476;27;45532;-71
2023/12/27 01:27:46;;;;;;;;;18.33;8.67;;;;;-144.24;100.00;88414.59;5096952;27;64550;-71
2023/12/27 01:30:11;;;;;;;;;9.33;9.00;;;;;-144.24;100.00;88821.53;5097823;27;45614;-70
2023/12/27 01:32:37;;;;;;;;;9.00;6.33;;;;;-144.24;100.00;88886.31;5097689;27;45677;-71
2023/12/27 01:35:02;;;;;;;;;11.67;11.00;;;;;-144.24;100.00;89275.03;5095992;27;71223;-71
2023/12/27 01:37:28;;;;;;;;;12.33;10.00;;;;;-144.24;100.00;89038.16;5092694;27;45608;-69
2023/12/27 01:39:53;;;;;;;;;10.67;8.33;;;;;-144.24;100.00;89084.72;5089025;27;64318;-69
2023/12/27 01:42:18;;;;;;;;;11.00;10.00;;;;;-144.24;100.00;89443.09;5095988;27;45694;-69
2023/12/27 01:44:44;;;;;;;;;7.00;6.33;;;;;-144.24;100.00;89076.63;5092940;27;52312;-70
2023/12/27 01:47:10;;;;;;;;;7.00;7.00;;;;;-144.24;100.00;89295.28;5096803;27;45543;-71
2023/12/27 01:49:35;;;;;;;;;8.33;6.00;;;;;-144.24;100.00;89420.84;5074336;27;45559;-69
2023/12/27 01:52:01;;;;;;;;;9.00;9.00;;;;;-144.24;100.00;89384.38;5089411;27;68404;-70
2023/12/27 01:54:26;;;;;;;;;5.00;5.00;;;;;-144.24;100.00;89860.25;5094693;27;45462;-71
2023/12/27 01:56:52;;;;;;;;;10.00;7.00;;;;;-144.24;100.00;89825.81;5095724;27;45504;-69
2023/12/27 01:59:17;;;;;;;;;7.33;5.67;;;;;-144.24;100.00;90149.84;5097054;27;54128;-70
2023/12/27 02:01:42;;;;;;;;;5.67;4.33;;;;;-144.24;100.00;90238.94;5095824;27;68509;-69
2023/12/27 02:04:08;;;;;;;;;7.33;7.33;;;;;-144.24;100.00;90520.47;5096594;27;60352;-70
2023/12/27 02:06:34;;;;;;;;;7.00;7.00;;;;;-144.24;100.00;90828.34;5097225;27;45558;-69
2023/12/27 02:08:59;;;;;;;;;8.00;7.00;;;;;-144.24;100.00;90883.03;5079149;27;45414;-70
2023/12/27 02:11:25;;;;;;;;;7.00;6.00;;;;;-144.24;100.00;91389.47;5096574;27;46538;-70
2023/12/27 02:13:50;;;;;;;;;7.00;6.00;;;;;-144.24;100.00;91387.44;5094845;27;70287;-70
2023/12/27 02:16:16;;;;;;;;;9.33;8.33;;;;;-144.24;100.00;91529.25;5095390;27;54725;-69
2023/12/27 02:18:41;;;;;;;;;10.00;6.00;;;;;-144.24;100.00;91557.63;5097522;27;45384;-69
2023/12/27 02:21:07;;;;;;;;;11.67;8.67;;;;;-144.24;100.00;92051.97;5076830;27;46056;-71
2023/12/27 02:23:33;;;;;;;;;6.67;6.67;;;;;-144.24;100.00;92098.56;5089729;27;72441;-71
2023/12/27 02:26:00;;;;;;;;;8.67;6.33;;;;;-144.24;100.00;92295.13;5077626;27;62741;-70
2023/12/27 02:28:25;;;;;;;;;10.33;8.00;;;;;-144.24;100.00;92313.34;5096144;27;58792;-69
2023/12/27 02:30:54;;;;;;;;;9.00;9.00;;;;;-144.24;100.00;92443.03;5096036;27;50851;-70
2023/12/27 02:33:19;;;;;;;;;11.00;7.00;;;;;-144.24;100.00;92738.91;5091595;27;45531;-71
2023/12/27 02:35:45;;;;;;;;;6.33;6.33;;;;;-144.24;100.00;92965.88;5088467;27;69417;-69
2023/12/27 02:38:10;;;;;;;;;9.00;6.00;;;;;-144.24;100.00;93016.53;5097185;27;45421;-69
2023/12/27 02:43:07;;;;;;;;;8.33;6.00;;;;;-144.24;100.00;93596.22;5056187;28;45396;-69
2023/12/27 02:45:33;;;;;;;;;8.33;7.33;;;;;-144.24;100.00;93766.47;5059268;28;65771;-69
2023/12/27 02:47:58;;;;;;;;;5.33;5.33;;;;;-144.24;100.00;93989.47;5065082;28;45456;-69
2023/12/27 02:50:23;;;;;;;;;12.67;6.00;;;;;-144.24;100.00;94261.09;5054966;28;70993;-71
2023/12/27 02:52:49;;;;;;;;;4.67;4.00;;;;;-144.24;100.00;94336.13;5055098;28;51571;-71
2023/12/27 02:55:14;;;;;;;;;8.33;6.00;;;;;-144.24;100.00;94571.28;5056270;28;45530;-69
2023/12/27 02:57:39;;;;;;;;;10.67;6.67;;;;;-144.24;100.00;94368.56;5054136;28;67127;-69
2023/12/27 03:00:06;;;;;;;;;12.33;10.00;;;;;-144.24;100.00;94745.66;5054673;28;65454;-70
2023/12/27 03:02:32;;;;;;;;;8.67;6.00;;;;;-144.24;100.00;94656.44;5055684;28;45543;-69
2023/12/27 03:04:57;;;;;;;;;7.33;6.00;;;;;-144.24;100.00;94934.22;5055549;28;45538;-71
2023/12/27 03:07:22;;;;;;;;;6.00;5.33;;;;;-144.24;100.00;94828.78;5055353;28;45401;-70
2023/12/27 03:09:48;;;;;;;;;7.67;6.33;;;;;-144.24;100.00;95106.56;5054523;28;74446;-71
2023/12/27 03:12:13;;;;;;;;;11.00;7.00;;;;;-144.24;100.00;95222.16;5042344;28;64239;-72
2023/12/27 03:14:38;;;;;;;;;6.00;6.00;;;;;-144.24;100.00;95424.94;5054687;28;65014;-70
2023/12/27 03:17:04;;;;;;;;;6.67;6.67;;;;;-144.24;100.00;95473.59;5055141;28;58799;-71
2023/12/27 03:19:29;;;;;;;;;7.33;6.00;;;;;-144.24;100.00;95321.50;5054663;28;45669;-72
2023/12/27 03:21:55;;;;;;;;;5.00;4.00;;;;;-144.24;100.00;95944.09;5044316;28;68070;-69
2023/12/27 03:24:20;;;;;;;;;7.00;7.00;;;;;-144.24;100.00;95952.22;5063094;28;45309;-71
2023/12/27 03:26:45;;;;;;;;;6.33;5.33;;;;;-144.24;100.00;96002.91;5054782;28;60407;-70
2023/12/27 03:29:11;;;;;;;;;7.00;5.00;;;;;-144.24;100.00;96341.63;5054324;28;46208;-70
2023/12/27 03:31:36;;;;;;;;;5.00;5.00;;;;;-144.24;100.00;96434.94;5054934;28;64715;-69
2023/12/27 03:34:01;;;;;;;;;6.00;6.00;;;;;-144.24;100.00;96564.75;5054827;28;45386;-69
2023/12/27 03:36:27;;;;;;;;;6.00;4.33;;;;;-144.24;100.00;96426.81;5054952;28;54026;-69
2023/12/27 03:38:52;;;;;;;;;4.67;4.67;;;;;-144.24;100.00;96897.44;5054320;28;73250;-70
2023/12/27 03:41:18;;;;;;;;;6.33;6.33;;;;;-144.24;100.00;96893.38;5050862;28;45579;-70
2023/12/27 03:43:43;;;;;;;;;12.00;7.00;;;;;-144.24;100.00;97169.28;5037888;28;63818;-70
2023/12/27 03:46:10;;;;;;;;;9.67;7.00;;;;;-144.24;100.00;96958.28;5057577;28;65552;-69
2023/12/27 03:48:35;;;;;;;;;9.33;5.33;;;;;-144.24;100.00;97252.44;5063291;28;46550;-70
2023/12/27 03:51:00;;;;;;;;;6.00;5.00;;;;;-144.24;100.00;97506.06;5055505;28;58563;-69
2023/12/27 03:53:25;;;;;;;;;5.00;5.00;;;;;-144.24;100.00;97368.09;5049515;28;66693;-69
2023/12/27 03:55:51;;;;;;;;;2.00;1.67;;;;;-144.24;100.00;97558.81;5058350;28;58584;-70
2023/12/27 03:58:16;;;;;;;;;6.67;4.67;;;;;-144.24;100.00;97822.56;5046658;28;74213;-69
2023/12/27 04:00:41;;;;;;;;;4.67;4.00;;;;;-144.24;100.00;98041.72;5055254;28;50737;-71
2023/12/27 04:03:07;;;;;;;;;6.67;6.33;;;;;-144.24;100.00;98175.66;5058420;28;51661;-69
2023/12/27 04:05:32;;;;;;;;;6.00;5.00;;;;;-144.24;100.00;98577.47;5057487;28;67697;-70
2023/12/27 04:07:57;;;;;;;;;5.67;5.67;;;;;-144.24;100.00;98719.53;5057773;28;73260;-70
2023/12/27 04:10:25;;;;;;;;;5.00;5.00;;;;;-144.24;100.00;99028.03;5058013;28;45349;-70
2023/12/27 04:12:51;;;;;;;;;5.33;5.33;;;;;-144.24;100.00;99192.44;5058171;28;45271;-69
2023/12/27 04:15:16;;;;;;;;;5.33;5.33;;;;;-144.24;100.00;98745.91;5058967;28;45522;-69
2023/12/27 04:17:41;;;;;;;;;9.33;6.00;;;;;-144.24;100.00;98837.25;5049189;28;45322;-70
2023/12/27 04:20:07;;;;;;;;;6.67;5.67;;;;;-144.24;100.00;98967.13;5058631;28;69785;-72
2023/12/27 04:22:32;;;;;;;;;5.00;4.33;;;;;-144.24;100.00;99192.44;5058613;28;45408;-71
2023/12/27 04:24:58;;;;;;;;;6.67;6.67;;;;;-144.24;100.00;99310.16;5057530;28;65260;-69
2023/12/27 04:27:23;;;;;;;;;6.00;3.67;;;;;-144.24;100.00;99395.41;5058220;28;46601;-69
2023/12/27 04:29:48;;;;;;;;;6.00;5.00;;;;;-144.24;100.00;99537.50;5057064;28;71279;-71
2023/12/27 04:32:14;;;;;;;;;6.00;5.00;;;;;-144.24;100.00;99760.81;5058358;28;45377;-70
2023/12/27 04:34:39;;;;;;;;;7.67;5.33;;;;;-144.24;100.00;100162.75;5058317;28;45300;-70
2023/12/27 04:37:05;;;;;;;;;9.67;5.00;;;;;-144.24;100.00;100085.63;5057237;28;72710;-70
2023/12/27 04:39:31;;;;;;;;;7.33;5.00;;;;;-144.24;100.00;100081.56;5057530;28;45503;-70
2023/12/27 04:41:56;;;;;;;;;7.33;5.67;;;;;-144.24;100.00;100045.00;5044281;28;45523;-71
2023/12/27 04:44:21;;;;;;;;;7.33;5.33;;;;;-144.24;100.00;99947.56;5057373;28;45528;-69
2023/12/27 04:46:47;;;;;;;;;4.33;4.33;;;;;-144.24;100.00;100148.56;5060579;28;46663;-70
2023/12/27 04:49:12;;;;;;;;;4.00;4.00;;;;;-144.24;100.00;99909.00;5056871;28;65894;-70
2023/12/27 04:51:38;;;;;;;;;4.33;4.33;;;;;-144.24;100.00;100073.44;5052910;28;45433;-72
2023/12/27 04:54:04;;;;;;;;;6.67;4.67;;;;;-144.24;100.00;100073.44;5057657;28;45227;-70
2023/12/27 04:56:29;;;;;;;;;11.00;5.00;;;;;-144.24;100.00;100197.28;5057762;28;47332;-70
2023/12/27 04:58:54;;;;;;;;;8.67;5.33;;;;;-144.24;100.00;100213.53;5056828;28;68624;-71
2023/12/27 05:01:20;;;;;;;;;7.33;5.00;;;;;-144.24;100.00;100558.69;5055431;28;70500;-69
2023/12/27 05:03:46;;;;;;;;;5.00;4.00;;;;;-144.24;100.00;100769.84;5057522;28;45606;-70
2023/12/27 05:06:12;;;;;;;;;4.67;4.67;;;;;-144.24;100.00;100572.91;5056843;28;47463;-69
2023/12/27 05:08:41;;;;;;;;;6.33;5.00;;;;;-144.24;100.00;100652.09;5044197;28;45275;-71
2023/12/27 05:11:14;;;;;;;;;3.00;3.00;;;;;-144.24;100.00;100895.75;5057880;28;45298;-69
2023/12/27 05:13:40;;;;;;;;;4.67;3.00;;;;;-144.24;100.00;100820.63;5056492;28;45309;-70
2023/12/27 05:16:15;;;;;;;;;5.33;4.00;;;;;-144.24;100.00;101035.88;5057188;28;45592;-71
2023/12/27 05:18:42;;;;;;;;;4.33;4.33;;;;;-144.24;100.00;101261.28;5056688;28;45554;-70
2023/12/27 05:21:09;;;;;;;;;4.00;4.00;;;;;-144.24;100.00;101421.72;5053770;28;45583;-69
2023/12/27 05:23:34;;;;;;;;;6.00;5.00;;;;;-144.24;100.00;101383.13;5056570;28;45420;-70
2023/12/27 05:26:00;;;;;;;;;11.00;5.00;;;;;-144.24;100.00;101490.75;5056824;28;47144;-71
2023/12/27 05:28:26;;;;;;;;;3.67;3.67;;;;;-144.24;100.00;101494.81;5057052;28;45284;-69
2023/12/27 05:30:51;;;;;;;;;5.00;5.00;;;;;-144.24;100.00;101600.44;5056977;28;45238;-69
2023/12/27 05:33:17;;;;;;;;;4.33;4.00;;;;;-144.24;100.00;101569.97;5057309;28;45546;-70
2023/12/27 05:35:42;;;;;;;;;10.00;4.67;;;;;-144.24;100.00;101602.47;5055220;28;73730;-71
2023/12/27 05:38:07;;;;;;;;;6.00;6.00;;;;;-144.24;100.00;101882.75;5056385;28;45488;-70
2023/12/27 05:40:33;;;;;;;;;6.00;4.00;;;;;-144.24;100.00;101984.28;5056601;28;45430;-70
2023/12/27 05:42:58;;;;;;;;;4.67;4.33;;;;;-144.24;100.00;101992.44;5056157;28;45691;-69
2023/12/27 05:45:23;;;;;;;;;4.00;3.00;;;;;-144.24;100.00;102165.06;5056484;28;45940;-70
2023/12/27 05:47:49;;;;;;;;;3.00;3.00;;;;;-144.24;100.00;102108.19;5064042;28;60850;-69
2023/12/27 05:50:15;;;;;;;;;4.67;4.67;;;;;-144.24;100.00;101929.47;5052175;28;45218;-69
2023/12/27 05:52:40;;;;;;;;;4.00;4.00;;;;;-144.24;100.00;102270.69;5056609;28;45546;-69
2023/12/27 05:55:06;;;;;;;;;9.00;5.00;;;;;-144.24;100.00;102441.34;5056727;28;45631;-70
2023/12/27 05:57:31;;;;;;;;;7.67;3.00;;;;;-144.24;100.00;102463.69;5048918;28;45500;-69
2023/12/27 05:59:57;;;;;;;;;0.00;0.00;;;;;-144.24;100.00;102419.00;5055660;28;68158;-70
2023/12/27 06:02:22;;;;;;;;;5.00;4.33;;;;;-144.24;100.00;102500.25;5055920;28;64295;-70
2023/12/27 06:04:48;;;;;;;;;6.00;4.00;;;;;-144.24;100.00;102664.78;5055430;28;46646;-70
2023/12/27 06:07:13;;;;;;;;;5.33;5.00;;;;;-144.24;100.00;102735.91;5056630;28;45519;-70
2023/12/27 06:09:39;;;;;;;;;3.33;3.00;;;;;-144.24;100.00;102642.44;5054774;28;66210;-70
2023/12/27 06:12:07;;;;;;;;;4.33;4.33;;;;;-144.24;100.00;102835.44;5056969;28;45479;-70
2023/12/27 06:14:32;;;;;;;;;4.67;4.33;;;;;-144.24;100.00;102674.94;5055852;28;47547;-70
2023/12/27 06:16:57;;;;;;;;;3.67;3.67;;;;;-144.24;100.00;102782.63;5055724;28;70836;-70
2023/12/27 06:19:23;;;;;;;;;4.00;4.00;;;;;-144.24;100.00;103121.91;5055381;28;66237;-69
2023/12/27 06:21:48;;;;;;;;;9.67;4.00;;;;;-144.24;100.00;102959.38;5056605;28;45465;-69
2023/12/27 06:24:14;;;;;;;;;3.00;3.00;;;;;-144.24;100.00;102896.38;5054472;28;71039;-71
2023/12/27 06:26:40;;;;;;;;;5.67;5.00;;;;;-144.24;100.00;102969.53;5056357;28;45474;-70
2023/12/27 06:29:05;;;;;;;;;6.67;4.33;;;;;-144.24;100.00;102737.94;5055705;28;45570;-70
2023/12/27 06:31:34;;;;;;;;;6.00;4.00;;;;;-144.24;100.00;103026.41;5056209;28;45371;-69
2023/12/27 06:33:59;;;;;;;;;4.00;4.00;;;;;-144.24;100.00;103006.09;5055258;28;46729;-70
2023/12/27 06:36:25;;;;;;;;;10.67;5.00;;;;;-144.24;100.00;102949.22;5055256;28;57085;-70
2023/12/27 06:38:50;;;;;;;;;9.00;5.00;;;;;-144.24;100.00;103209.28;5054993;28;64880;-71
2023/12/27 06:41:16;;;;;;;;;6.00;5.00;;;;;-144.24;100.00;103245.84;5055030;28;54220;-71
2023/12/27 06:43:43;;;;;;;;;4.00;4.00;;;;;-144.24;100.00;103197.06;5056126;28;47648;-69
2023/12/27 06:46:08;;;;;;;;;11.00;6.33;;;;;-144.24;100.00;103121.91;5057096;28;45253;-70
2023/12/27 06:48:33;;;;;;;;;10.00;7.00;;;;;-144.24;100.00;103489.66;5063641;28;45481;-70
2023/12/27 06:50:59;;;;;;;;;10.00;6.00;;;;;-144.24;100.00;103347.44;5053013;28;45557;-71
2023/12/27 06:53:24;;;;;;;;;6.00;3.67;;;;;-144.24;100.00;103286.47;5054765;28;46804;-70
2023/12/27 06:55:49;;;;;;;;;6.00;5.33;;;;;-144.24;100.00;103286.47;5050596;28;67800;-70
2023/12/27 06:58:15;;;;;;;;;4.67;4.67;;;;;-144.24;100.00;103339.31;5054051;28;67823;-71
2023/12/27 07:00:41;;;;;;;;;6.00;4.67;;;;;-144.24;100.00;103369.78;5054160;28;66285;-70
2023/12/27 07:03:06;;;;;;;;;5.67;4.33;;;;;-144.24;100.00;103302.72;5055822;28;46502;-70
2023/12/27 07:05:31;;;;;;;;;5.67;4.00;;;;;-144.24;100.00;103294.59;5055565;28;45464;-70
2023/12/27 07:07:57;;;;;;;;;9.33;5.00;;;;;-144.24;100.00;103461.22;5047737;28;57242;-69
2023/12/27 07:10:22;;;;;;;;;6.00;6.00;;;;;-144.24;100.00;103570.94;5054790;28;62048;-70
2023/12/27 07:12:47;;;;;;;;;4.33;4.33;;;;;-144.24;100.00;103438.88;5055250;28;46503;-70
2023/12/27 07:15:13;;;;;;;;;4.00;4.00;;;;;-144.24;100.00;103373.84;5054541;28;68350;-70
2023/12/27 07:17:38;;;;;;;;;6.67;5.00;;;;;-144.24;100.00;103203.16;5055616;28;45351;-71
2023/12/27 07:20:04;;;;;;;;;4.00;4.00;;;;;-144.24;100.00;103412.44;5053825;28;45547;-70
2023/12/27 07:22:29;;;;;;;;;5.33;4.00;;;;;-144.24;100.00;103453.09;5059469;28;47352;-70
2023/12/27 07:24:55;;;;;;;;;5.00;3.33;;;;;-144.24;100.00;103499.81;5058273;28;62287;-70
2023/12/27 07:27:20;;;;;;;;;9.00;5.33;;;;;-144.24;100.00;103461.22;5058371;28;64026;-71
2023/12/27 07:29:45;;;;;;;;;7.33;5.00;;;;;-144.24;100.00;103451.06;5040421;28;62941;-71
2023/12/27 07:32:11;;;;;;;;;7.33;4.67;;;;;-144.24;100.00;103670.50;5058087;28;70532;-71
2023/12/27 07:34:36;;;;;;;;;6.00;5.00;;;;;-144.24;100.00;103770.06;5038280;28;46431;-72
2023/12/27 07:37:03;;;;;;;;;10.00;6.00;;;;;-144.24;100.00;103711.16;5054240;28;45477;-71
2023/12/27 07:39:29;;;;;;;;;6.00;5.00;;;;;-144.24;100.00;103692.84;5040056;28;45546;-70
2023/12/27 07:41:54;;;;;;;;;9.33;6.33;;;;;-144.24;100.00;103392.13;5046705;28;45663;-71
2023/12/27 07:44:20;;;;;;;;;7.33;5.00;;;;;-144.24;100.00;103666.44;5050719;28;45471;-70
2023/12/27 07:46:46;;;;;;;;;10.00;8.00;;;;;-144.24;100.00;103499.81;5056790;28;62442;-71
2023/12/27 07:49:11;;;;;;;;;5.33;4.33;;;;;-144.24;100.00;103587.19;5050475;28;64968;-71
2023/12/27 07:51:36;;;;;;;;;6.00;5.00;;;;;-144.24;100.00;103615.63;5057913;28;45499;-70
2023/12/27 07:54:02;;;;;;;;;6.33;5.00;;;;;-144.24;100.00;103745.69;5058525;28;60899;-70
2023/12/27 07:56:27;;;;;;;;;5.00;5.00;;;;;-144.24;100.00;103774.13;5058443;28;45635;-70
2023/12/27 07:58:53;;;;;;;;;5.00;5.00;;;;;-144.24;100.00;103656.28;5057844;28;45600;-71
2023/12/27 08:01:19;;;;;;;;;3.00;3.00;;;;;-144.24;100.00;103808.69;5057670;28;47126;-71
2023/12/27 08:03:44;;;;;;;;;8.00;5.67;;;;;-144.24;100.00;103585.16;5059662;28;45519;-71
2023/12/27 08:06:10;;;;;;;;;11.00;5.33;;;;;-144.24;100.00;103540.47;5057418;28;45571;-71
2023/12/27 08:08:35;;;;;;;;;6.33;6.33;;;;;-144.24;100.00;103560.78;5058125;28;45578;-70
2023/12/27 08:11:04;;;;;;;;;11.00;8.67;;;;;-144.24;100.00;103595.31;5057890;28;45545;-70
2023/12/27 08:13:31;;;;;;;;;6.00;5.00;;;;;-144.24;100.00;103660.34;5056848;28;45490;-73
2023/12/27 08:15:57;;;;;;;;;5.33;3.33;;;;;-144.24;100.00;103684.72;5057912;28;45423;-72
2023/12/27 08:18:22;;;;;;;;;8.00;6.00;;;;;-144.24;100.00;103658.31;5057296;28;45359;-71
2023/12/27 08:20:48;;;;;;;;;5.00;5.00;;;;;-144.24;100.00;103658.31;5058426;28;46500;-70
2023/12/27 08:23:16;;;;;;;;;5.00;4.00;;;;;-144.24;100.00;103664.41;5058205;28;45524;-73
2023/12/27 08:25:41;;;;;;;;;8.33;5.67;;;;;-144.24;100.00;103763.97;5058845;28;45543;-72
2023/12/27 08:28:08;;;;;;;;;5.67;4.67;;;;;-144.24;100.00;103806.66;5045251;28;45428;-71
2023/12/27 08:30:33;;;;;;;;;4.00;4.00;;;;;-144.24;100.00;103784.28;5053011;28;45737;-72
2023/12/27 08:33:00;;;;;;;;;4.33;4.00;;;;;-144.24;100.00;103948.91;5057227;28;45496;-71
2023/12/27 08:35:25;;;;;;;;;5.67;5.00;;;;;-144.24;100.00;104148.06;5058404;28;45466;-73
2023/12/27 08:37:50;;;;;;;;;8.00;3.00;;;;;-144.24;100.00;104160.25;5056947;28;45639;-71
2023/12/27 08:40:18;;;;;;;;;7.67;6.00;;;;;-144.24;100.00;104225.28;5057276;28;48646;-72
2023/12/27 08:42:44;;;;;;;;;6.00;5.00;;;;;-144.24;100.00;104235.44;5059697;28;45943;-72
2023/12/27 08:45:09;;;;;;;;;6.00;4.67;;;;;-144.24;100.00;104550.44;5058255;28;45334;-71
2023/12/27 08:47:34;;;;;;;;;7.33;5.00;;;;;-144.24;100.00;104696.78;5060927;28;64881;-71
2023/12/27 08:50:00;;;;;;;;;6.00;5.00;;;;;-144.24;100.00;104566.72;5055517;28;65336;-72
2023/12/27 08:52:25;;;;;;;;;3.33;3.33;;;;;-144.24;100.00;104719.16;5057928;28;45271;-72
2023/12/27 08:54:52;;;;;;;;;2.33;2.33;;;;;-144.24;100.00;104709.00;5057720;28;45319;-71
2023/12/27 08:57:17;;;;;;;;;6.33;4.67;;;;;-144.24;100.00;104906.16;5057902;28;45928;-72
2023/12/27 08:59:42;;;;;;;;;5.67;5.00;;;;;-144.24;100.00;105304.56;5056682;28;73394;-70
2023/12/27 09:02:08;;;;;;;;;6.00;4.00;;;;;-144.24;100.00;105296.44;5046228;28;45510;-70
2023/12/27 09:04:33;;;;;;;;;6.33;5.33;;;;;-144.24;100.00;105428.56;5045420;28;66414;-69
2023/12/27 09:06:58;;;;;;;;;4.00;4.00;;;;;-144.24;100.00;105922.56;5042223;28;59710;-69
2023/12/27 09:09:24;;;;;;;;;3.67;3.33;;;;;-144.24;100.00;106373.97;5054012;28;46289;-72
2023/12/27 09:11:49;;;;;;;;;5.00;4.00;;;;;-144.24;100.00;106394.28;5055591;28;68910;-71
2023/12/27 09:14:14;;;;;;;;;8.00;3.33;;;;;-144.24;100.00;106534.59;5049053;28;67661;-70
2023/12/27 09:16:40;;;;;;;;;5.00;3.33;;;;;-144.24;100.00;106575.25;5031150;28;47913;-69
2023/12/27 09:19:05;;;;;;;;;7.33;5.00;;;;;-144.24;100.00;106843.69;5041821;28;45740;-69
2023/12/27 09:21:30;;;;;;;;;5.00;3.00;;;;;-144.24;100.00;107148.75;5021393;28;45344;-69
2023/12/27 09:23:57;;;;;;;;;3.33;3.33;;;;;-144.24;100.00;107219.91;5052575;28;45438;-71
2023/12/27 09:26:23;;;;;;;;;4.67;3.67;;;;;-144.24;100.00;107618.56;5057378;28;45415;-71
2023/12/27 09:28:48;;;;;;;;;7.00;5.00;;;;;-144.24;100.00;107765.00;5055502;28;66965;-72
2023/12/27 09:31:13;;;;;;;;;4.33;4.00;;;;;-144.24;100.00;107793.47;5056389;28;70131;-70
2023/12/27 09:33:42;;;;;;;;;3.00;3.00;;;;;-144.24;100.00;108059.94;5056539;28;45361;-70
2023/12/27 09:36:08;;;;;;;;;5.00;3.00;;;;;-144.24;100.00;108639.75;5048547;28;45604;-70
2023/12/27 09:38:33;;;;;;;;;6.67;3.00;;;;;-144.24;100.00;108808.59;5056938;28;46216;-71
2023/12/27 09:40:58;;;;;;;;;5.33;3.00;;;;;-144.24;100.00;108861.50;5056434;28;45523;-71
2023/12/27 09:43:24;;;;;;;;;4.00;3.00;;;;;-144.24;100.00;109537.03;5056094;28;45840;-69
2023/12/27 09:45:52;;;;;;;;;4.00;4.00;;;;;-144.24;100.00;109836.19;5057089;28;45385;-70
2023/12/27 09:48:18;;;;;;;;;4.00;4.00;;;;;-144.24;100.00;109921.66;5039611;28;47407;-71
2023/12/27 09:50:43;;;;;;;;;6.33;4.00;;;;;-144.24;100.00;110096.69;5054595;28;45434;-72
2023/12/27 09:53:10;;;;;;;;;4.00;4.00;;;;;-144.24;100.00;110302.25;5038086;28;60510;-70
2023/12/27 09:55:35;;;;;;;;;4.00;4.00;;;;;-144.24;100.00;110721.53;5057633;28;45614;-72
2023/12/27 09:58:01;;;;;;;;;3.33;3.33;;;;;-144.24;100.00;110864.03;5055890;28;70869;-72
2023/12/27 10:00:28;;;;;;;;;5.33;3.00;;;;;-144.24;100.00;110955.63;5057011;28;45456;-72
2023/12/27 10:02:58;;;;;;;;;5.00;4.00;;;;;-144.24;100.00;111106.28;5056716;28;45344;-71
2023/12/27 10:05:27;;;;;;;;;7.33;4.67;;;;;-144.24;100.00;111061.50;5056964;28;45281;-71
2023/12/27 10:07:53;;;;;;;;;5.00;5.00;;;;;-144.24;100.00;111240.63;5039096;28;46343;-70
2023/12/27 10:10:18;;;;;;;;;5.00;4.00;;;;;-144.24;100.00;111521.59;5037317;28;70707;-71
2023/12/27 10:12:44;;;;;;;;;6.33;4.67;;;;;-144.24;100.00;111782.19;5049773;28;65448;-71
2023/12/27 10:15:12;;;;;;;;;8.00;6.00;;;;;-144.24;100.00;112055.03;5054317;28;45496;-72
2023/12/27 10:17:37;;;;;;;;;6.00;6.00;;;;;-144.24;100.00;112244.41;5051206;28;47750;-71
2023/12/27 10:20:03;;;;;;;;;11.67;5.00;;;;;-144.24;100.00;112391.00;5055847;28;69931;-70
2023/12/27 10:22:29;;;;;;;;;6.00;6.00;;;;;-144.24;100.00;112456.19;5038532;28;45484;-70
2023/12/27 10:24:55;;;;;;;;;10.00;7.00;;;;;-144.24;100.00;112865.50;5057430;28;45167;-70
2023/12/27 10:27:21;;;;;;;;;10.00;6.00;;;;;-144.24;100.00;113183.22;5055360;28;70466;-70
2023/12/27 10:29:49;;;;;;;;;6.00;6.00;;;;;-144.24;100.00;113321.72;5055629;28;45666;-72
2023/12/27 10:32:18;;;;;;;;;5.00;5.00;;;;;-144.24;100.00;113507.09;5056093;28;45452;-71
2023/12/27 10:34:45;;;;;;;;;7.00;4.00;;;;;-144.24;100.00;113759.66;5056381;28;45554;-71
2023/12/27 10:37:12;;;;;;;;;5.00;5.00;;;;;-144.24;100.00;113883.94;5055889;28;46288;-71
2023/12/27 10:39:46;;;;;;;;;10.33;7.67;;;;;-144.24;100.00;114211.91;5055812;28;45444;-71
2023/12/27 10:42:16;;;;;;;;;4.00;4.00;;;;;-144.24;100.00;114224.13;5054985;28;45439;-70
2023/12/27 10:44:42;;;;;;;;;5.33;4.00;;;;;-144.24;100.00;114395.28;5056345;28;45395;-73
2023/12/27 10:47:11;;;;;;;;;5.67;4.33;;;;;-144.24;100.00;114627.53;5061662;28;46748;-72
2023/12/27 10:49:40;;;;;;;;;9.67;5.00;;;;;-144.24;100.00;114759.97;5038237;28;45399;-71
2023/12/27 10:52:06;;;;;;;;;5.00;4.00;;;;;-144.24;100.00;114865.94;5052260;28;45369;-71
2023/12/27 10:54:33;;;;;;;;;4.67;4.00;;;;;-144.24;100.00;114865.94;5040451;28;45550;-71
2023/12/27 10:57:00;;;;;;;;;4.33;4.33;;;;;-144.24;100.00;114865.94;5059044;28;46696;-71